Terminal Aerodrome Forecast
Issued by NWS La Crosse, WI

Home | Current Version | Previous Version | Text Only | Print | Product List | Glossary On
Versions: 1 2 3 4 5 6 7 8 9 10 11 12 13 14 15 16 17 18 19 20 21 22 23 24 25 26 27 28 29 30
467
FTUS43 KARX 240520
TAFRST
TAF
KRST 240520Z 2406/2506 20010KT P6SM BKN100
     FM241200 22006KT P6SM SCT015 BKN035
      TEMPO 2412/2416 5SM BR BKN015
     FM241600 26009KT P6SM BKN040
     FM242300 17005KT P6SM SCT050=

USA.gov is the U.S. government's official web portal to all federal, state and local government web resources and services.